Antler, North Dakota
Current Conditions -  °F | °C
As of 1:58 AM on Friday 31 Oct 2014 (Local Time) from KMIB Reporting Station
Clear Clear  
Wind Chill: 14°   Ceiling: Unl
Heat Index: 14°   Visibility: 10mi
Dew Point: 13°   Wind: 3mph
Humidity: 96%   Direction: 160°SSE
Pressure: 30.55"   Gusts: NA
Location:  48.97°N, 101.28°W
Report Text: KMIB 310658Z AUTO 16003KT 10SM CLR M10/M10 A3055 RMK AO2 SLP380 T11001105 $
Loading
Personal Weather Stations






























Interactive Weather Map
Tropical Storm Tracking
New forecast layout! Learn more

10-Day Weather Forecast

Advertisements
Track Severe Weather on mobile